Time;durP1;ratioP1;P1;durP2;ratioP2;P2;SDS_P1;SDS_P2;PMS_P1;PMS_P2;Temp;Humidity;BMP_temperature;BMP_pressure;BME280_temperature;BME280_humidity;BME280_pressure;Samples;Min_cycle;Max_cycle;Signal;HPM_P1;HPM_P2
2022/12/17 13:06:52;;;;;;;2.40;1.75;;;10.20;68.20;;;;;;5034760;28;20079;-78
2022/12/17 13:09:21;;;;;;;5.00;1.80;;;10.40;67.30;;;;;;5031019;28;20024;-78
2022/12/17 13:11:59;;;;;;;6.13;1.80;;;10.40;66.40;;;;;;5034536;28;20032;-78
2022/12/17 13:14:30;;;;;;;5.65;1.52;;;10.40;65.80;;;;;;5018345;28;20133;-77
2022/12/17 13:17:07;;;;;;;3.17;1.88;;;10.40;65.20;;;;;;5030074;28;20404;-77
2022/12/17 13:19:46;;;;;;;2.80;1.80;;;9.90;64.80;;;;;;5014631;28;20039;-76
2022/12/17 13:22:14;;;;;;;4.32;1.77;;;9.50;67.70;;;;;;5015426;28;20156;-77
2022/12/17 13:24:41;;;;;;;4.95;1.77;;;9.10;69.00;;;;;;5013249;28;20037;-77
2022/12/17 13:27:30;;;;;;;3.72;1.75;;;8.90;68.90;;;;;;5031749;28;20508;-77
2022/12/17 13:29:56;;;;;;;7.05;2.50;;;8.90;69.10;;;;;;5025971;28;20048;-75
2022/12/17 13:32:30;;;;;;;5.40;2.33;;;8.90;68.70;;;;;;5031178;28;20108;-77
2022/12/17 13:34:58;;;;;;;4.93;2.00;;;8.70;70.40;;;;;;5026152;28;20036;-76
2022/12/17 13:37:39;;;;;;;3.85;2.03;;;8.40;68.90;;;;;;5026581;28;20047;-77
2022/12/17 13:40:25;;;;;;;4.00;2.05;;;7.90;71.40;;;;;;5030800;28;20041;-78
2022/12/17 13:42:51;;;;;;;6.75;2.10;;;7.70;73.80;;;;;;5033980;28;20029;-76
2022/12/17 13:45:20;;;;;;;5.80;2.00;;;7.70;74.10;;;;;;5014430;28;20037;-76
2022/12/17 13:47:53;;;;;;;4.80;2.35;;;7.70;74.60;;;;;;5014806;28;20496;-76
2022/12/17 13:50:25;;;;;;;5.65;1.73;;;7.80;73.70;;;;;;5031545;28;20682;-77
2022/12/17 13:52:51;;;;;;;5.18;2.45;;;7.90;75.10;;;;;;5033145;28;20842;-76
2022/12/17 13:55:22;;;;;;;4.03;2.22;;;8.10;71.20;;;;;;5015229;28;20028;-77
2022/12/17 13:57:48;;;;;;;1.90;1.70;;;8.30;69.40;;;;;;5016026;28;20029;-76
2022/12/17 14:00:24;;;;;;;3.28;2.22;;;8.50;67.70;;;;;;5034118;28;20036;-77
2022/12/17 14:02:50;;;;;;;3.45;1.90;;;8.50;65.20;;;;;;5029610;28;20114;-77
2022/12/17 14:05:36;;;;;;;3.90;1.88;;;8.50;66.60;;;;;;5029742;28;20044;-76
2022/12/17 14:08:04;;;;;;;3.92;1.85;;;8.40;65.60;;;;;;5003876;28;20037;-76
2022/12/17 14:10:31;;;;;;;3.20;1.80;;;8.30;65.00;;;;;;5027006;28;20037;-77
2022/12/17 14:13:09;;;;;;;3.78;1.90;;;8.20;62.60;;;;;;5034643;28;20055;-77
2022/12/17 14:15:35;;;;;;;3.55;1.80;;;8.10;64.00;;;;;;5032200;28;20053;-77
2022/12/17 14:18:02;;;;;;;8.48;1.83;;;7.90;63.90;;;;;;5035758;28;20136;-76
2022/12/17 14:20:35;;;;;;;3.40;1.95;;;7.70;65.70;;;;;;5017538;28;20041;-77
2022/12/17 14:23:11;;;;;;;3.60;1.85;;;7.50;66.50;;;;;;5017247;28;20030;-76
2022/12/17 14:25:42;;;;;;;5.22;2.38;;;7.30;67.70;;;;;;5001270;28;20049;-77
2022/12/17 14:28:23;;;;;;;;;;;7.10;68.10;;;;;;5039372;28;20028;-77
2022/12/17 14:30:50;;;;;;;3.40;1.95;;;6.90;68.20;;;;;;5036302;28;20364;-77
2022/12/17 14:33:32;;;;;;;3.35;1.95;;;6.70;67.20;;;;;;5019034;28;20090;-76
2022/12/17 14:36:24;;;;;;;4.07;2.40;;;6.50;68.70;;;;;;5018709;28;20041;-76
2022/12/17 14:38:57;;;;;;;9.93;2.60;;;6.30;70.20;;;;;;4997526;28;20082;-77
2022/12/17 14:44:20;;;;;;;3.53;2.15;;;5.80;69.90;;;;;;5018910;28;20563;-77
2022/12/17 14:46:47;;;;;;;3.35;2.17;;;5.60;70.80;;;;;;5008001;28;20522;-77
2022/12/17 14:49:20;;;;;;;3.78;2.28;;;5.40;71.80;;;;;;5033336;28;20060;-76
2022/12/17 14:51:48;;;;;;;3.25;2.08;;;5.20;72.30;;;;;;5032413;28;20274;-76
2022/12/17 14:54:18;;;;;;;4.32;2.33;;;5.10;74.50;;;;;;5032429;28;20093;-77
2022/12/17 14:56:46;;;;;;;8.43;2.40;;;4.90;76.50;;;;;;5036862;28;20025;-77
2022/12/17 14:59:33;;;;;;;3.53;2.17;;;4.80;78.00;;;;;;5034694;28;20500;-77
2022/12/17 15:02:09;;;;;;;4.63;2.58;;;4.60;80.80;;;;;;5016866;28;20071;-77
2022/12/17 15:04:37;;;;;;;3.30;1.85;;;4.60;83.00;;;;;;5017004;28;20282;-77
2022/12/17 15:07:04;;;;;;;2.20;1.85;;;4.40;87.00;;;;;;5036823;28;20102;-76
2022/12/17 15:09:37;;;;;;;5.95;2.65;;;4.30;89.80;;;;;;5033926;28;20165;-76
2022/12/17 15:12:03;;;;;;;4.72;2.50;;;4.30;88.10;;;;;;5018116;28;20124;-77
2022/12/17 15:14:29;;;;;;;3.80;2.22;;;4.20;86.50;;;;;;5036354;28;20107;-77
2022/12/17 15:16:55;;;;;;;4.88;2.30;;;4.10;88.00;;;;;;5019421;28;20327;-77
2022/12/17 15:19:21;;;;;;;6.07;2.70;;;4.00;85.40;;;;;;5037678;28;20352;-77
2022/12/17 15:21:47;;;;;;;4.18;2.47;;;3.90;83.70;;;;;;5034679;28;20032;-77
2022/12/17 15:24:17;;;;;;;10.93;3.50;;;3.80;84.80;;;;;;5035578;28;20131;-76
2022/12/17 15:26:43;;;;;;;8.32;3.65;;;3.80;84.60;;;;;;5040865;28;20118;-77
2022/12/17 15:29:08;;;;;;;5.72;3.28;;;3.70;85.20;;;;;;5040899;28;20167;-78
2022/12/17 15:31:34;;;;;;;7.28;3.63;;;3.50;86.00;;;;;;5029891;28;20033;-77
2022/12/17 15:33:59;;;;;;;6.22;3.20;;;3.40;87.50;;;;;;5033433;28;20138;-77
2022/12/17 15:36:25;;;;;;;5.45;3.90;;;3.30;87.60;;;;;;5039649;28;20417;-77
2022/12/17 15:38:51;;;;;;;8.38;3.88;;;3.10;87.70;;;;;;5040009;28;20112;-76
2022/12/17 15:44:01;;;;;;;9.27;3.78;;;2.90;90.60;;;;;;5040859;28;20107;-76
2022/12/17 15:46:28;;;;;;;8.10;3.50;;;2.90;90.90;;;;;;5022149;28;20045;-77
2022/12/17 15:48:55;;;;;;;6.25;3.65;;;2.80;91.00;;;;;;5040796;28;20032;-77
2022/12/17 15:51:22;;;;;;;7.50;3.55;;;2.70;91.50;;;;;;5021641;28;20120;-77
2022/12/17 15:53:48;;;;;;;5.85;3.38;;;2.70;91.20;;;;;;5036249;28;20090;-77
2022/12/17 15:56:25;;;;;;;6.55;3.35;;;2.60;91.60;;;;;;5010250;28;20461;-78
2022/12/17 15:58:51;;;;;;;5.72;3.25;;;2.60;90.70;;;;;;5035342;28;20036;-77
2022/12/17 16:01:18;;;;;;;5.65;3.30;;;2.50;91.10;;;;;;5013994;28;20044;-78
2022/12/17 16:03:44;;;;;;;4.43;2.88;;;2.50;90.30;;;;;;5014486;28;20036;-79
2022/12/17 16:06:10;;;;;;;5.07;3.33;;;2.50;90.40;;;;;;5013076;28;20045;-77
2022/12/17 16:08:39;;;;;;;6.82;3.47;;;2.50;90.60;;;;;;5029216;28;20102;-78
2022/12/17 16:11:06;;;;;;;5.10;2.90;;;2.40;91.10;;;;;;5031668;28;20025;-78
2022/12/17 16:13:32;;;;;;;6.57;3.25;;;2.40;92.10;;;;;;5034511;28;20363;-77
2022/12/17 16:15:58;;;;;;;5.15;2.97;;;2.20;95.70;;;;;;5018384;28;20409;-77
2022/12/17 16:18:24;;;;;;;6.32;3.53;;;2.10;96.90;;;;;;5005785;28;20021;-78
2022/12/17 16:20:50;;;;;;;7.82;3.50;;;1.90;97.10;;;;;;5013116;28;20028;-77
2022/12/17 16:23:16;;;;;;;6.22;3.58;;;1.80;98.20;;;;;;5016422;28;20025;-78
2022/12/17 16:25:41;;;;;;;5.82;3.60;;;1.60;98.80;;;;;;5016745;28;20504;-77
2022/12/17 16:28:07;;;;;;;8.45;4.10;;;1.50;99.80;;;;;;5036170;28;20032;-78
2022/12/17 16:30:33;;;;;;;5.53;3.33;;;1.40;99.50;;;;;;5033008;28;20457;-80
2022/12/17 16:32:59;;;;;;;6.25;3.42;;;1.30;99.90;;;;;;5033138;28;20151;-76
2022/12/17 16:35:25;;;;;;;6.65;3.55;;;1.30;99.90;;;;;;5030010;28;20399;-77
2022/12/17 16:37:51;;;;;;;7.53;3.50;;;1.20;99.90;;;;;;5031948;28;20033;-78
2022/12/17 16:40:16;;;;;;;6.97;3.60;;;1.20;99.90;;;;;;5032934;28;20044;-77
2022/12/17 16:42:42;;;;;;;10.95;5.30;;;1.10;99.90;;;;;;5033995;28;20021;-77
2022/12/17 16:45:08;;;;;;;11.65;5.13;;;1.20;98.90;;;;;;5033530;28;20440;-78
2022/12/17 16:47:34;;;;;;;8.55;4.60;;;1.20;98.80;;;;;;5033396;28;20028;-77
2022/12/17 16:50:00;;;;;;;7.85;4.50;;;1.20;98.10;;;;;;5014648;28;20090;-78
2022/12/17 16:52:25;;;;;;;10.43;5.32;;;1.20;98.50;;;;;;5034195;28;20029;-76
2022/12/17 16:54:51;;;;;;;7.07;4.63;;;1.20;98.70;;;;;;5032695;28;20029;-77
2022/12/17 16:57:16;;;;;;;7.93;4.47;;;1.30;98.30;;;;;;5035747;28;20118;-78
2022/12/17 16:59:42;;;;;;;7.97;4.95;;;1.30;97.70;;;;;;5014939;28;20481;-77
2022/12/17 17:02:13;;;;;;;10.50;5.00;;;1.30;97.80;;;;;;5014684;28;20061;-77
2022/12/17 17:04:38;;;;;;;10.10;5.15;;;1.30;97.50;;;;;;5033117;28;20749;-77
2022/12/17 17:07:04;;;;;;;7.45;4.50;;;1.30;97.60;;;;;;5016615;28;20119;-77
2022/12/17 17:09:31;;;;;;;8.45;4.93;;;1.20;98.10;;;;;;5010939;28;20450;-77
2022/12/17 17:12:00;;;;;;;11.38;4.63;;;1.20;97.80;;;;;;5017398;28;20036;-77
2022/12/17 17:14:25;;;;;;;10.35;5.30;;;1.20;98.40;;;;;;5035190;28;20036;-78
2022/12/17 17:16:51;;;;;;;10.40;5.35;;;1.20;98.90;;;;;;5014827;28;20100;-77
2022/12/17 17:19:17;;;;;;;13.15;5.75;;;1.10;98.80;;;;;;5032239;28;20029;-77
2022/12/17 17:21:52;;;;;;;10.45;5.22;;;1.10;98.40;;;;;;5025753;28;20041;-77
2022/12/17 17:24:20;;;;;;;9.10;4.88;;;1.20;98.30;;;;;;5030273;28;20109;-77
2022/12/17 17:26:46;;;;;;;8.52;4.88;;;1.10;99.90;;;;;;5031566;28;20424;-82
2022/12/17 17:29:11;;;;;;;7.75;4.20;;;1.00;99.90;;;;;;5032259;28;20036;-79
2022/12/17 17:31:38;;;;;;;10.23;5.00;;;0.80;99.90;;;;;;5013206;28;20036;-79
2022/12/17 17:34:11;;;;;;;8.98;4.55;;;0.70;99.90;;;;;;5014579;28;20043;-78
2022/12/17 17:36:38;;;;;;;10.27;4.53;;;0.70;99.90;;;;;;5013749;28;20469;-79
2022/12/17 17:39:04;;;;;;;13.73;4.45;;;0.70;99.90;;;;;;5031285;28;20492;-79
2022/12/17 17:41:31;;;;;;;8.98;4.32;;;0.70;99.90;;;;;;5031901;28;20037;-79
2022/12/17 17:44:05;;;;;;;13.57;5.55;;;0.60;99.90;;;;;;5007278;28;20082;-79
2022/12/17 17:46:32;;;;;;;12.85;6.03;;;0.60;99.90;;;;;;5016387;28;20106;-79
2022/12/17 17:49:00;;;;;;;12.23;6.63;;;0.50;99.90;;;;;;5016282;28;20481;-79
2022/12/17 17:51:28;;;;;;;11.38;5.90;;;0.50;99.90;;;;;;5011548;28;20488;-78
2022/12/17 17:53:54;;;;;;;10.98;6.35;;;0.60;99.90;;;;;;5010321;28;20078;-79
2022/12/17 17:56:26;;;;;;;10.45;5.22;;;0.60;99.90;;;;;;5013082;28;20083;-78
2022/12/17 17:58:54;;;;;;;10.77;5.68;;;0.70;99.90;;;;;;5012318;28;20466;-77
2022/12/17 18:01:23;;;;;;;13.50;5.80;;;0.80;99.90;;;;;;5013895;28;20043;-78
2022/12/17 18:03:49;;;;;;;13.02;5.78;;;0.80;99.90;;;;;;5031447;28;20039;-78
2022/12/17 18:06:15;;;;;;;12.23;5.85;;;0.90;99.90;;;;;;5030671;28;20037;-79
2022/12/17 18:08:41;;;;;;;15.27;6.43;;;1.00;99.90;;;;;;5031863;28;20086;-78
2022/12/17 18:11:09;;;;;;;11.55;5.97;;;1.00;99.90;;;;;;5013662;28;20411;-78
2022/12/17 18:13:53;;;;;;;12.75;6.65;;;1.10;99.90;;;;;;5034648;28;20037;-78
2022/12/17 18:16:25;;;;;;;13.95;6.32;;;1.00;99.90;;;;;;5013309;28;20036;-75
2022/12/17 18:18:54;;;;;;;;;;;1.00;99.90;;;;;;5033974;28;20455;-78
2022/12/17 18:21:21;;;;;;;15.73;6.80;;;1.00;99.90;;;;;;5015858;28;19927;-82
2022/12/17 18:23:47;;;;;;;15.10;7.13;;;1.00;99.90;;;;;;5014723;28;20153;-82
2022/12/17 18:26:18;;;;;;;15.88;7.50;;;1.00;99.90;;;;;;5012166;28;20071;-81
2022/12/17 18:28:45;;;;;;;20.80;8.23;;;1.00;99.90;;;;;;5015989;28;20043;-78
2022/12/17 18:31:14;;;;;;;19.98;8.48;;;1.00;99.90;;;;;;5014222;28;20120;-78
2022/12/17 18:33:41;;;;;;;17.55;8.27;;;1.10;99.90;;;;;;5033534;28;20021;-79
2022/12/17 18:36:19;;;;;;;19.55;8.18;;;1.10;99.90;;;;;;5029248;28;20040;-80
2022/12/17 18:38:45;;;;;;;19.13;8.75;;;1.10;99.90;;;;;;5016063;28;20040;-85
2022/12/17 18:44:04;;;;;;;27.92;10.30;;;1.10;99.90;;;;;;5035814;28;20051;-77
2022/12/17 18:46:31;;;;;;;22.00;9.15;;;1.10;99.90;;;;;;5035861;28;20033;-78
2022/12/17 18:49:06;;;;;;;25.67;11.05;;;1.10;99.90;;;;;;5015043;28;20037;-76
2022/12/17 18:51:33;;;;;;;25.45;10.07;;;1.10;99.90;;;;;;5033502;28;20489;-77
2022/12/17 18:54:00;;;;;;;17.90;9.07;;;1.10;99.90;;;;;;5015944;28;20097;-77
2022/12/17 18:56:28;;;;;;;23.90;8.98;;;1.10;99.90;;;;;;5035676;28;20036;-77
2022/12/17 18:58:55;;;;;;;23.00;9.05;;;1.00;99.90;;;;;;5015431;28;20037;-76
2022/12/17 19:01:23;;;;;;;21.52;9.02;;;1.00;99.90;;;;;;5034180;28;20579;-79
2022/12/17 19:03:50;;;;;;;22.25;9.63;;;0.90;99.90;;;;;;5015980;28;20393;-78
2022/12/17 19:06:16;;;;;;;24.15;9.80;;;0.90;99.90;;;;;;5016131;28;20032;-77
2022/12/17 19:08:41;;;;;;;32.08;12.82;;;0.80;99.90;;;;;;5037182;28;20086;-77
2022/12/17 19:11:08;;;;;;;29.60;12.63;;;0.70;99.90;;;;;;5019782;28;20135;-78
2022/12/17 19:13:34;;;;;;;29.88;12.30;;;0.70;99.90;;;;;;5025659;28;20374;-77
2022/12/17 19:16:24;;;;;;;29.05;12.65;;;0.80;99.90;;;;;;5020701;28;20175;-78
2022/12/17 19:18:58;;;;;;;29.60;12.43;;;0.70;99.90;;;;;;5022683;28;20111;-78
2022/12/17 19:21:25;;;;;;;31.75;11.60;;;0.70;99.90;;;;;;5019917;28;20037;-77
2022/12/17 19:23:58;;;;;;;31.27;12.95;;;0.60;99.90;;;;;;5037034;28;20025;-77
2022/12/17 19:26:25;;;;;;;29.88;12.13;;;0.60;99.90;;;;;;5033310;28;20040;-78
2022/12/17 19:28:52;;;;;;;29.83;13.98;;;0.60;99.90;;;;;;5035858;28;20121;-78
2022/12/17 19:31:19;;;;;;;29.95;12.75;;;0.60;99.90;;;;;;5032413;28;20028;-78
2022/12/17 19:33:45;;;;;;;29.05;13.93;;;0.50;99.90;;;;;;5016049;28;20039;-77
2022/12/17 19:36:17;;;;;;;35.33;14.27;;;0.40;99.90;;;;;;5033718;28;20275;-77
2022/12/17 19:38:44;;;;;;;40.22;15.18;;;0.40;99.90;;;;;;5018372;28;20044;-77
2022/12/17 19:41:15;;;;;;;46.10;16.13;;;0.30;99.90;;;;;;5037423;28;20061;-77
2022/12/17 19:43:41;;;;;;;45.58;16.88;;;0.30;99.90;;;;;;5037843;28;20037;-76
2022/12/17 19:46:15;;;;;;;46.42;18.20;;;0.30;99.90;;;;;;5027044;28;20144;-77
2022/12/17 19:48:42;;;;;;;44.22;17.77;;;0.40;99.90;;;;;;5036871;28;20055;-77
2022/12/17 19:51:09;;;;;;;46.08;18.08;;;0.50;99.90;;;;;;5018934;28;20040;-78
2022/12/17 19:53:37;;;;;;;49.95;19.15;;;0.50;99.90;;;;;;5035101;28;20021;-77
2022/12/17 19:56:13;;;;;;;53.80;20.50;;;0.50;99.90;;;;;;5017194;28;20037;-78
2022/12/17 19:58:39;;;;;;;57.33;20.35;;;0.50;99.90;;;;;;5019083;28;20033;-77
2022/12/17 20:01:29;;;;;;;54.55;21.58;;;0.50;99.90;;;;;;5016860;28;20024;-77
2022/12/17 20:03:55;;;;;;;60.97;22.00;;;0.50;99.90;;;;;;5032870;28;20473;-79
2022/12/17 20:06:23;;;;;;;62.88;24.25;;;0.50;99.90;;;;;;5017710;28;20051;-77
2022/12/17 20:08:49;;;;;;;61.13;23.35;;;0.60;99.90;;;;;;5034082;28;20033;-77
2022/12/17 20:11:33;;;;;;;57.30;23.55;;;0.60;99.90;;;;;;5015914;28;20039;-77
2022/12/17 20:14:05;;;;;;;61.90;22.83;;;0.60;99.90;;;;;;5018964;28;20021;-77
2022/12/17 20:16:31;;;;;;;;;;;0.70;99.90;;;;;;5047780;28;20047;-77
2022/12/17 20:18:59;;;;;;;56.88;21.65;;;0.70;99.90;;;;;;5037629;28;19919;-77
2022/12/17 20:21:24;;;;;;;63.00;22.38;;;0.80;99.90;;;;;;5033047;28;20197;-77
2022/12/17 20:23:50;;;;;;;54.78;20.73;;;0.80;99.90;;;;;;5016824;28;20075;-77
2022/12/17 20:26:16;;;;;;;53.15;20.83;;;0.80;99.90;;;;;;5018241;28;20049;-77
2022/12/17 20:28:42;;;;;;;54.25;22.05;;;0.90;99.90;;;;;;5039555;28;20106;-77
2022/12/17 20:31:08;;;;;;;55.85;21.92;;;0.90;99.90;;;;;;5033925;28;20040;-78
2022/12/17 20:33:34;;;;;;;58.30;21.63;;;1.00;99.90;;;;;;5018195;28;20403;-77
2022/12/17 20:36:06;;;;;;;54.20;22.17;;;1.00;99.90;;;;;;5034560;28;20101;-77
2022/12/17 20:38:32;;;;;;;53.88;23.17;;;0.90;99.90;;;;;;5034139;28;20355;-77
2022/12/17 20:40:57;;;;;;;59.92;22.20;;;1.00;99.90;;;;;;5029265;28;20045;-78
2022/12/17 20:43:23;;;;;;;57.13;22.02;;;0.90;99.90;;;;;;5034375;28;20025;-77
2022/12/17 20:45:50;;;;;;;62.65;23.05;;;0.90;99.90;;;;;;5009865;28;20060;-77
2022/12/17 20:48:16;;;;;;;58.70;22.85;;;0.90;99.90;;;;;;5011456;28;20198;-77
2022/12/17 20:50:43;;;;;;;54.03;21.88;;;0.90;99.90;;;;;;5007744;28;20033;-77
2022/12/17 20:53:09;;;;;;;55.38;21.92;;;1.10;99.90;;;;;;5005950;28;20090;-77
2022/12/17 20:55:35;;;;;;;58.63;21.58;;;1.00;99.90;;;;;;5035757;28;20431;-77
2022/12/17 20:58:01;;;;;;;53.05;22.05;;;1.00;99.90;;;;;;5032358;28;20033;-77
2022/12/17 21:00:26;;;;;;;58.60;20.83;;;0.90;99.90;;;;;;5034388;28;20421;-77
2022/12/17 21:02:52;;;;;;;51.50;20.55;;;0.90;99.90;;;;;;5014917;28;20060;-77
2022/12/17 21:05:18;;;;;;;52.90;20.73;;;1.00;99.90;;;;;;5017855;28;20033;-77
2022/12/17 21:07:44;;;;;;;48.58;19.15;;;1.00;99.90;;;;;;5032855;28;20036;-77
2022/12/17 21:10:10;;;;;;;49.78;20.02;;;1.00;99.90;;;;;;5015706;28;20044;-77
2022/12/17 21:15:21;;;;;;;55.90;20.75;;;1.10;99.90;;;;;;5029401;28;20075;-77
2022/12/17 21:17:47;;;;;;;46.88;18.40;;;1.10;99.90;;;;;;5014976;28;20063;-74
2022/12/17 21:20:13;;;;;;;54.38;20.88;;;1.20;99.90;;;;;;5026790;28;20028;-77
2022/12/17 21:22:40;;;;;;;47.10;19.17;;;1.10;99.90;;;;;;5032561;28;20027;-77
2022/12/17 21:25:06;;;;;;;52.50;19.63;;;1.10;99.90;;;;;;5033867;28;20505;-77
2022/12/17 21:27:33;;;;;;;49.47;19.95;;;1.00;99.90;;;;;;5028644;28;21434;-77
2022/12/17 21:29:59;;;;;;;50.38;20.02;;;1.10;99.90;;;;;;5002488;28;20226;-77
2022/12/17 21:32:24;;;;;;;55.85;21.00;;;1.10;99.90;;;;;;5007513;28;20514;-77
2022/12/17 21:34:50;;;;;;;47.90;19.80;;;1.00;99.90;;;;;;5025441;28;20401;-76
2022/12/17 21:37:16;;;;;;;49.10;18.88;;;1.00;99.90;;;;;;5014205;28;20033;-77
2022/12/17 21:39:42;;;;;;;49.80;19.17;;;1.00;99.90;;;;;;5029027;28;20213;-76
2022/12/17 21:44:51;;;;;;;51.40;19.58;;;1.00;99.90;;;;;;5034359;28;20047;-77
2022/12/17 21:47:17;;;;;;;46.65;19.60;;;1.00;99.90;;;;;;5017697;28;20412;-78
2022/12/17 21:49:43;;;;;;;55.97;20.00;;;0.90;99.90;;;;;;5016321;28;20123;-76
2022/12/17 21:52:08;;;;;;;52.35;19.77;;;0.80;99.90;;;;;;5014457;28;20834;-78
2022/12/17 21:54:34;;;;;;;47.58;20.30;;;0.80;99.90;;;;;;5030798;28;20079;-77
2022/12/17 21:56:59;;;;;;;58.00;20.40;;;0.70;99.90;;;;;;5006174;28;20370;-78
2022/12/17 21:59:25;;;;;;;47.13;19.20;;;0.70;99.90;;;;;;5001859;28;20033;-77
2022/12/17 22:01:52;;;;;;;50.83;19.58;;;0.70;99.90;;;;;;5020489;28;20395;-77
2022/12/17 22:04:18;;;;;;;54.53;20.30;;;0.60;99.90;;;;;;5025764;28;20354;-78
2022/12/17 22:06:43;;;;;;;44.83;18.25;;;0.60;99.90;;;;;;5017921;28;20457;-78
2022/12/17 22:09:09;;;;;;;45.38;18.10;;;0.60;99.90;;;;;;5033133;28;20094;-78
2022/12/17 22:11:35;;;;;;;46.55;19.40;;;0.50;99.90;;;;;;5032962;28;20037;-78
2022/12/17 22:14:01;;;;;;;48.63;19.10;;;0.50;99.90;;;;;;5018179;28;20033;-78
2022/12/17 22:16:33;;;;;;;50.85;19.33;;;0.50;99.90;;;;;;5034499;28;20026;-78
2022/12/17 22:19:03;;;;;;;40.75;16.63;;;0.50;99.90;;;;;;5018349;28;20032;-78
2022/12/17 22:21:32;;;;;;;45.65;17.73;;;0.50;99.90;;;;;;5032128;28;20407;-79
2022/12/17 22:23:58;;;;;;;53.35;18.48;;;0.50;99.90;;;;;;5013170;28;20132;-78
2022/12/17 22:26:24;;;;;;;44.90;18.65;;;0.50;99.90;;;;;;5035500;28;20551;-79
2022/12/17 22:28:49;;;;;;;51.03;18.88;;;0.40;99.90;;;;;;5035560;28;20191;-78
2022/12/17 22:34:03;;;;;;;43.65;18.52;;;0.40;99.90;;;;;;5038085;28;20140;-78
2022/12/17 22:36:30;;;;;;;51.33;19.73;;;0.40;99.90;;;;;;4680561;28;10000431;-78
2022/12/17 22:39:01;;;;;;;49.17;18.33;;;0.40;99.90;;;;;;5017212;28;20029;-78
2022/12/17 22:44:12;;;;;;;48.63;19.42;;;0.40;99.90;;;;;;5038525;28;20036;-78
2022/12/17 22:46:37;;;;;;;51.38;18.50;;;0.30;99.90;;;;;;5025165;28;20037;-78
2022/12/17 22:49:03;;;;;;;50.75;18.90;;;0.30;99.90;;;;;;5035907;28;20420;-77
2022/12/17 22:51:29;;;;;;;54.97;20.02;;;0.30;99.90;;;;;;5044053;28;20052;-78
2022/12/17 22:53:55;;;;;;;50.25;20.13;;;0.20;99.90;;;;;;5035921;28;20117;-78
2022/12/17 22:56:21;;;;;;;55.17;20.17;;;0.20;99.90;;;;;;5031605;28;20129;-78
2022/12/17 22:58:47;;;;;;;53.97;19.70;;;0.20;99.90;;;;;;5042433;28;20029;-78
2022/12/17 23:01:13;;;;;;;52.35;20.40;;;0.20;99.90;;;;;;5040002;28;20302;-78
2022/12/17 23:03:39;;;;;;;47.05;18.40;;;0.10;99.90;;;;;;5035587;28;20392;-78
2022/12/17 23:06:11;;;;;;;47.75;18.38;;;0.10;99.90;;;;;;5012318;28;20041;-77
2022/12/17 23:08:37;;;;;;;44.15;18.52;;;0.10;99.90;;;;;;5034807;28;20115;-78
2022/12/17 23:11:11;;;;;;;48.00;19.25;;;0.00;99.90;;;;;;5034501;28;20160;-78
2022/12/17 23:13:38;;;;;;;44.33;17.45;;;0.00;99.90;;;;;;5017732;28;20056;-78
2022/12/17 23:16:04;;;;;;;49.30;17.52;;;-0.20;99.90;;;;;;5030649;28;20131;-79
2022/12/17 23:18:29;;;;;;;39.08;15.85;;;-0.20;99.90;;;;;;5036475;28;20444;-78
2022/12/17 23:20:55;;;;;;;42.88;17.55;;;-0.30;99.90;;;;;;5028696;28;20028;-78
2022/12/17 23:23:21;;;;;;;42.70;17.67;;;-0.30;99.90;;;;;;5032574;28;21253;-77
2022/12/17 23:25:47;;;;;;;45.47;18.10;;;-0.40;99.90;;;;;;5041304;28;20534;-78
2022/12/17 23:28:12;;;;;;;41.75;16.67;;;-0.40;99.90;;;;;;5023081;28;20032;-78
2022/12/17 23:30:38;;;;;;;38.97;16.80;;;-0.50;99.90;;;;;;5017916;28;20436;-78
2022/12/17 23:33:04;;;;;;;41.72;17.67;;;-0.60;99.90;;;;;;5039854;28;20033;-77
2022/12/17 23:35:30;;;;;;;40.60;17.58;;;-0.60;99.90;;;;;;5047422;28;20037;-79
2022/12/17 23:37:56;;;;;;;42.42;17.77;;;-0.60;99.90;;;;;;5043653;28;20266;-78
2022/12/17 23:40:22;;;;;;;44.75;18.90;;;-0.60;99.90;;;;;;5036955;28;20250;-78
2022/12/17 23:42:48;;;;;;;47.55;19.55;;;-0.60;99.90;;;;;;5022718;28;20520;-78
2022/12/17 23:45:14;;;;;;;52.65;18.98;;;-0.60;99.90;;;;;;5015302;28;20511;-79
2022/12/17 23:47:40;;;;;;;48.15;19.23;;;-0.60;99.90;;;;;;5024711;28;20404;-77
2022/12/17 23:50:07;;;;;;;48.85;18.70;;;-0.60;99.90;;;;;;5039396;28;20036;-78
2022/12/17 23:52:34;;;;;;;52.95;18.50;;;-0.40;99.90;;;;;;5023010;28;20039;-78
2022/12/17 23:54:59;;;;;;;47.47;19.15;;;-0.30;99.90;;;;;;5033697;28;20033;-78
2022/12/17 23:57:25;;;;;;;52.70;20.17;;;-0.20;99.90;;;;;;5037856;28;20523;-78
2022/12/17 23:59:50;;;;;;;55.00;20.13;;;-0.10;99.90;;;;;;5035530;28;20127;-77
